Rochester, New York
Current Conditions -  °F | °C
As of 10:54 PM on Wednesday 22 Oct 2014 (Local Time) from KROC Reporting Station
Broken Clouds Broken Clouds  
Wind Chill: 50°   Ceiling: 3000
Heat Index: 50°   Visibility: 10mi
Dew Point: 42°   Wind: 12mph
Humidity: 74%   Direction: 10°N
Pressure: 30.17"   Gusts: NA
Location:  43.16°N, 77.62°W
Report Text: KROC 230254Z 01010KT 10SM FEW024 BKN030 BKN036 10/06 A3017 RMK AO2 SLP221 T01000056 58007
Loading
Personal Weather Stations






























Interactive Weather Map
Tropical Storm Tracking
New forecast layout! Learn more

10-Day Weather Forecast

Advertisements
Track Severe Weather on mobile